createdAt,value
2022-12-27T00:00:31.700Z,82.24
2022-12-27T00:01:31.657Z,81.96
2022-12-27T00:02:31.853Z,82.53
2022-12-27T00:03:31.323Z,82.24
2022-12-27T00:04:31.616Z,82.34
2022-12-27T00:05:31.693Z,81.96
2022-12-27T00:06:31.639Z,82.34
2022-12-27T00:07:31.644Z,81.96
2022-12-27T00:08:31.662Z,82.53
2022-12-27T00:09:31.673Z,82.43
2022-12-27T00:10:31.685Z,82.34
2022-12-27T00:11:31.704Z,82.53
2022-12-27T00:12:31.723Z,82.05
2022-12-27T00:13:31.476Z,82.05
2022-12-27T00:14:31.771Z,82.15
2022-12-27T00:15:31.785Z,82.05
2022-12-27T00:16:32.063Z,82.05
2022-12-27T00:17:31.793Z,82.15
2022-12-27T00:18:31.811Z,82.15
2022-12-27T00:19:31.832Z,82.34
2022-12-27T00:20:31.851Z,82.34
2022-12-27T00:21:31.921Z,82.05
2022-12-27T00:22:31.939Z,82.24
2022-12-27T00:23:31.925Z,82.34
2022-12-27T00:24:31.910Z,82.24
2022-12-27T00:25:31.930Z,82.24
2022-12-27T00:26:31.955Z,81.96
2022-12-27T00:27:31.946Z,82.15
2022-12-27T00:28:31.960Z,82.43
2022-12-27T00:29:31.983Z,82.15
2022-12-27T00:30:31.739Z,81.67
2022-12-27T00:31:32.240Z,82.24
2022-12-27T00:32:32.024Z,82.15
2022-12-27T00:33:32.037Z,81.77
2022-12-27T00:34:32.094Z,82.24
2022-12-27T00:35:31.819Z,82.05
2022-12-27T00:36:32.088Z,82.15
2022-12-27T00:37:32.145Z,82.05
2022-12-27T00:38:32.113Z,82.05
2022-12-27T00:39:31.871Z,82.24
2022-12-27T00:40:32.153Z,82.05
2022-12-27T00:41:32.215Z,82.15
2022-12-27T00:42:32.183Z,82.05
2022-12-27T00:43:32.189Z,82.05
2022-12-27T00:44:32.225Z,82.15
2022-12-27T00:45:32.304Z,82.43
2022-12-27T00:46:32.245Z,82.05
2022-12-27T00:47:32.268Z,82.15
2022-12-27T00:48:32.278Z,82.15
2022-12-27T00:49:32.284Z,82.15
2022-12-27T00:50:32.297Z,82.15
2022-12-27T00:51:32.060Z,82.24
2022-12-27T00:52:32.326Z,82.34
2022-12-27T00:53:32.404Z,82.34
2022-12-27T00:54:32.362Z,81.96
2022-12-27T00:55:32.377Z,81.96
2022-12-27T00:56:32.407Z,82.05
2022-12-27T00:57:32.412Z,82.15
2022-12-27T00:58:32.410Z,82.24
2022-12-27T00:59:32.446Z,82.15
2022-12-27T01:00:32.453Z,82.05
2022-12-27T01:01:32.582Z,82.24
2022-12-27T01:02:32.475Z,82.34
2022-12-27T01:03:32.722Z,82.43
2022-12-27T01:04:32.505Z,81.77
2022-12-27T01:05:32.524Z,82.15
2022-12-27T01:06:32.549Z,82.24
2022-12-27T01:07:32.292Z,82.43
2022-12-27T01:08:32.581Z,81.96
2022-12-27T01:09:32.648Z,81.67
2022-12-27T01:10:32.596Z,81.67
2022-12-27T01:11:32.618Z,81.67
2022-12-27T01:12:32.637Z,81.77
2022-12-27T01:13:32.675Z,81.58
2022-12-27T01:14:32.664Z,81.58
2022-12-27T01:15:32.684Z,81.77
2022-12-27T01:16:32.903Z,81.67
2022-12-27T01:17:32.712Z,81.67
2022-12-27T01:18:32.726Z,81.77
2022-12-27T01:19:32.746Z,81.86
2022-12-27T01:20:32.761Z,81.67
2022-12-27T01:21:32.776Z,81.77
2022-12-27T01:22:32.528Z,82.05
2022-12-27T01:23:32.834Z,81.86
2022-12-27T01:24:32.816Z,81.67
2022-12-27T01:25:32.870Z,81.77
2022-12-27T01:26:32.592Z,81.67
2022-12-27T01:27:32.900Z,81.86
2022-12-27T01:28:32.874Z,81.77
2022-12-27T01:29:32.637Z,82.05
2022-12-27T01:30:32.649Z,81.77
2022-12-27T01:31:33.063Z,81.67
2022-12-27T01:32:32.932Z,81.77
2022-12-27T01:33:32.953Z,81.67
2022-12-27T01:34:32.961Z,81.86
2022-12-27T01:35:32.969Z,81.77
2022-12-27T01:36:33.005Z,81.86
2022-12-27T01:37:33.006Z,81.67
2022-12-27T01:38:33.020Z,81.77
2022-12-27T01:39:33.044Z,81.77
2022-12-27T01:40:32.799Z,81.67
2022-12-27T01:41:33.124Z,81.67
2022-12-27T01:42:33.085Z,81.77
2022-12-27T01:43:33.098Z,81.67
2022-12-27T01:44:33.116Z,81.67
2022-12-27T01:45:33.249Z,81.77
2022-12-27T01:46:33.150Z,81.77
2022-12-27T01:47:33.176Z,81.77
2022-12-27T01:48:32.912Z,81.86
2022-12-27T01:49:33.191Z,82.05
2022-12-27T01:50:32.949Z,81.86
2022-12-27T01:51:33.224Z,81.86
2022-12-27T01:52:37.324Z,82.05
2022-12-27T01:53:33.266Z,81.96
2022-12-27T01:54:33.258Z,81.86
2022-12-27T01:55:33.287Z,81.96
2022-12-27T01:56:33.300Z,81.86
2022-12-27T01:57:33.369Z,81.96
2022-12-27T01:58:33.087Z,81.96
2022-12-27T01:59:33.545Z,81.2
2022-12-27T02:00:33.314Z,81.29
2022-12-27T02:01:33.782Z,81.29
2022-12-27T02:02:33.756Z,82.15
2022-12-27T02:03:33.353Z,81.96
2022-12-27T02:04:33.603Z,82.15
2022-12-27T02:05:33.595Z,82.05
2022-12-27T02:06:33.548Z,81.96
2022-12-27T02:07:33.549Z,82.05
2022-12-27T02:08:33.579Z,81.63
2022-12-27T02:09:33.614Z,81.96
2022-12-27T02:10:33.351Z,82.01
2022-12-27T02:11:33.571Z,82.01
2022-12-27T02:12:33.575Z,81.92
2022-12-27T02:13:33.654Z,81.54
2022-12-27T02:14:33.622Z,82.05
2022-12-27T02:15:33.650Z,81.92
2022-12-27T02:16:33.498Z,82.15
2022-12-27T02:17:33.633Z,81.2
2022-12-27T02:18:33.629Z,81.29
2022-12-27T02:19:33.843Z,81.44
2022-12-27T02:20:33.659Z,81.38
2022-12-27T02:21:33.668Z,81.54
2022-12-27T02:22:33.429Z,81.38
2022-12-27T02:23:40.244Z,81.25
2022-12-27T02:24:33.684Z,81.25
2022-12-27T02:25:33.813Z,81.54
2022-12-27T02:26:33.795Z,81.48
2022-12-27T02:27:33.529Z,81.35
2022-12-27T02:28:33.778Z,81.44
2022-12-27T02:29:33.857Z,81.73
2022-12-27T02:30:33.913Z,81.25
2022-12-27T02:31:33.832Z,81.54
2022-12-27T02:32:33.823Z,81.58
2022-12-27T02:33:33.849Z,81.54
2022-12-27T02:34:33.859Z,81.54
2022-12-27T02:35:33.883Z,81.35
2022-12-27T02:36:33.885Z,81.63
2022-12-27T02:37:33.645Z,81.54
2022-12-27T02:38:33.656Z,81.54
2022-12-27T02:39:33.942Z,81.54
2022-12-27T02:40:33.709Z,81.54
2022-12-27T02:41:33.968Z,81.54
2022-12-27T02:42:33.724Z,81.44
2022-12-27T02:43:33.998Z,81.54
2022-12-27T02:44:34.017Z,81.63
2022-12-27T02:45:34.085Z,81.54
2022-12-27T02:46:34.199Z,81.54
2022-12-27T02:47:34.060Z,81.54
2022-12-27T02:48:34.083Z,81.54
2022-12-27T02:49:34.092Z,81.73
2022-12-27T02:50:34.108Z,81.54
2022-12-27T02:51:34.128Z,81.35
2022-12-27T02:52:34.135Z,81.35
2022-12-27T02:53:33.896Z,81.35
2022-12-27T02:54:34.173Z,81.44
2022-12-27T02:55:34.173Z,81.54
2022-12-27T02:56:34.200Z,81.35
2022-12-27T02:57:33.955Z,81.25
2022-12-27T02:58:34.239Z,81.54
2022-12-27T02:59:34.232Z,81.16
2022-12-27T03:00:34.274Z,81.35
2022-12-27T03:01:34.672Z,81.25
2022-12-27T03:02:34.491Z,81.25
2022-12-27T03:03:36.329Z,81.25
2022-12-27T03:04:34.312Z,81.44
2022-12-27T03:05:34.066Z,82.1
2022-12-27T03:06:34.377Z,82.01
2022-12-27T03:07:34.362Z,81.35
2022-12-27T03:08:34.376Z,81.35
2022-12-27T03:09:34.388Z,81.54
2022-12-27T03:10:34.411Z,81.35
2022-12-27T03:11:34.419Z,82.01
2022-12-27T03:12:34.461Z,81.92
2022-12-27T03:13:34.440Z,81.25
2022-12-27T03:14:34.459Z,82.1
2022-12-27T03:15:35.841Z,81.92
2022-12-27T03:16:34.503Z,82.2
2022-12-27T03:17:34.689Z,81.25
2022-12-27T03:18:34.534Z,81.44
2022-12-27T03:19:34.548Z,82.2
2022-12-27T03:20:34.555Z,81.35
2022-12-27T03:21:34.579Z,81.54
2022-12-27T03:22:34.598Z,81.44
2022-12-27T03:23:34.593Z,82.1
2022-12-27T03:24:34.612Z,81.92
2022-12-27T03:25:34.628Z,82.01
2022-12-27T03:26:35.047Z,81.44
2022-12-27T03:27:34.656Z,82.1
2022-12-27T03:28:34.686Z,81.44
2022-12-27T03:29:34.688Z,81.54
2022-12-27T03:30:34.514Z,81.92
2022-12-27T03:31:34.453Z,81.92
2022-12-27T03:32:34.479Z,81.92
2022-12-27T03:33:34.797Z,81.92
2022-12-27T03:34:34.778Z,82.01
2022-12-27T03:35:34.778Z,82.01
2022-12-27T03:36:34.543Z,81.92
2022-12-27T03:37:34.805Z,82.1
2022-12-27T03:38:34.820Z,82.1
2022-12-27T03:39:34.610Z,81.92
2022-12-27T03:40:34.855Z,82.1
2022-12-27T03:41:34.867Z,81.92
2022-12-27T03:42:34.887Z,82.01
2022-12-27T03:43:34.657Z,82.1
2022-12-27T03:44:34.909Z,82.1
2022-12-27T03:45:34.924Z,82.01
2022-12-27T03:46:35.103Z,81.92
2022-12-27T03:47:34.970Z,81.63
2022-12-27T03:48:34.981Z,81.82
2022-12-27T03:49:35.106Z,81.82
2022-12-27T03:50:35.004Z,81.92
2022-12-27T03:51:35.127Z,81.82
2022-12-27T03:52:35.031Z,81.82
2022-12-27T03:53:35.057Z,81.92
2022-12-27T03:54:34.798Z,81.92
2022-12-27T03:55:36.146Z,81.82
2022-12-27T03:56:35.089Z,81.63
2022-12-27T03:57:35.120Z,81.82
2022-12-27T03:58:34.887Z,82.01
2022-12-27T03:59:35.137Z,81.82
2022-12-27T04:00:35.167Z,81.73
2022-12-27T04:01:35.479Z,81.82
2022-12-27T04:02:35.545Z,81.82
2022-12-27T04:03:35.109Z,81.92
2022-12-27T04:04:35.261Z,81.82
2022-12-27T04:05:35.318Z,81.92
2022-12-27T04:06:35.247Z,81.92
2022-12-27T04:07:35.263Z,82.01
2022-12-27T04:08:35.268Z,81.92
2022-12-27T04:09:35.028Z,82.01
2022-12-27T04:10:35.300Z,81.92
2022-12-27T04:11:35.328Z,81.92
2022-12-27T04:12:35.371Z,81.73
2022-12-27T04:13:35.093Z,81.73
2022-12-27T04:14:35.358Z,81.54
2022-12-27T04:15:35.378Z,81.92
2022-12-27T04:16:35.143Z,81.73
2022-12-27T04:17:35.435Z,81.63
2022-12-27T04:18:35.424Z,81.73
2022-12-27T04:19:35.439Z,81.63
2022-12-27T04:20:35.454Z,81.73
2022-12-27T04:21:35.532Z,81.92
2022-12-27T04:22:35.532Z,81.73
2022-12-27T04:23:35.524Z,81.73
2022-12-27T04:24:35.510Z,81.73
2022-12-27T04:25:35.533Z,82.01
2022-12-27T04:26:36.027Z,81.82
2022-12-27T04:27:35.572Z,81.73
2022-12-27T04:28:35.607Z,81.73
2022-12-27T04:29:35.586Z,81.82
2022-12-27T04:30:35.598Z,81.73
2022-12-27T04:31:35.693Z,81.82
2022-12-27T04:32:35.390Z,81.73
2022-12-27T04:33:35.391Z,81.73
2022-12-27T04:34:35.649Z,81.73
2022-12-27T04:35:35.686Z,81.63
2022-12-27T04:36:35.685Z,81.73
2022-12-27T04:37:35.752Z,81.92
2022-12-27T04:38:35.754Z,81.73
2022-12-27T04:39:35.744Z,81.63
2022-12-27T04:40:35.775Z,81.92
2022-12-27T04:41:35.765Z,81.73
2022-12-27T04:42:35.774Z,81.92
2022-12-27T04:43:35.786Z,81.63
2022-12-27T04:44:35.808Z,82.1
2022-12-27T04:45:35.877Z,81.63
2022-12-27T04:46:35.993Z,82.2
2022-12-27T04:47:35.866Z,82.2
2022-12-27T04:48:35.865Z,81.92
2022-12-27T04:49:35.904Z,82.1
2022-12-27T04:50:35.898Z,81.63
2022-12-27T04:51:35.914Z,81.63
2022-12-27T04:52:35.941Z,82.2
2022-12-27T04:53:36.005Z,82.29
2022-12-27T04:54:35.986Z,81.63
2022-12-27T04:55:35.973Z,81.54
2022-12-27T04:56:35.987Z,82.39
2022-12-27T04:57:35.754Z,82.1
2022-12-27T04:58:36.028Z,82.1
2022-12-27T04:59:36.021Z,81.92
2022-12-27T05:00:36.061Z,82.2
2022-12-27T05:01:36.318Z,82.1
2022-12-27T05:02:36.472Z,82.2
2022-12-27T05:03:36.171Z,82.2
2022-12-27T05:04:35.864Z,82.39
2022-12-27T05:05:36.126Z,82.2
2022-12-27T05:06:36.138Z,82.1
2022-12-27T05:07:36.160Z,82.39
2022-12-27T05:08:36.160Z,82.1
2022-12-27T05:09:36.219Z,82.01
2022-12-27T05:10:36.202Z,82.39
2022-12-27T05:11:36.207Z,81.54
2022-12-27T05:12:36.224Z,82.1
2022-12-27T05:13:36.235Z,81.54
2022-12-27T05:14:36.250Z,81.92
2022-12-27T05:15:36.270Z,82.29
2022-12-27T05:16:36.324Z,82.1
2022-12-27T05:17:36.037Z,81.92
2022-12-27T05:18:36.323Z,81.92
2022-12-27T05:19:36.333Z,82.39
2022-12-27T05:20:36.382Z,82.2
2022-12-27T05:21:36.354Z,82.39
2022-12-27T05:22:36.373Z,81.73
2022-12-27T05:23:36.393Z,82.39
2022-12-27T05:24:36.141Z,82.29
2022-12-27T05:25:36.505Z,82.29
2022-12-27T05:26:36.847Z,82.39
2022-12-27T05:27:36.463Z,82.01
2022-12-27T05:28:36.457Z,82.1
2022-12-27T05:29:36.236Z,82.2
2022-12-27T05:30:36.498Z,82.1
2022-12-27T05:31:36.475Z,82.01
2022-12-27T05:32:36.535Z,82.2
2022-12-27T05:33:36.548Z,82.2
2022-12-27T05:34:36.569Z,82.01
2022-12-27T05:35:36.594Z,82.1
2022-12-27T05:36:36.599Z,82.1
2022-12-27T05:37:36.338Z,82.01
2022-12-27T05:38:36.606Z,82.01
2022-12-27T05:39:36.651Z,82.1
2022-12-27T05:40:36.639Z,82.2
2022-12-27T05:41:36.756Z,81.92
2022-12-27T05:42:36.408Z,82.29
2022-12-27T05:43:36.683Z,82.2
2022-12-27T05:44:36.695Z,82.01
2022-12-27T05:45:36.711Z,82.1
2022-12-27T05:46:36.828Z,82.29
2022-12-27T05:47:36.752Z,82.39
2022-12-27T05:48:36.760Z,82.29
2022-12-27T05:49:36.513Z,82.49
2022-12-27T05:50:36.803Z,82.2
2022-12-27T05:51:36.801Z,82.49
2022-12-27T05:52:43.212Z,82.29
2022-12-27T05:53:36.827Z,82.1
2022-12-27T05:54:36.861Z,82.2
2022-12-27T05:55:36.873Z,82.2
2022-12-27T05:56:36.875Z,82.39
2022-12-27T05:57:36.952Z,82.1
2022-12-27T05:58:36.900Z,82.2
2022-12-27T05:59:36.917Z,82.39
2022-12-27T06:00:36.963Z,82.29
2022-12-27T06:01:36.925Z,82.2
2022-12-27T06:02:37.408Z,82.29
2022-12-27T06:03:37.114Z,82.2
2022-12-27T06:04:37.006Z,82.2
2022-12-27T06:05:36.999Z,82.2
2022-12-27T06:06:37.166Z,82.1
2022-12-27T06:07:37.030Z,82.29
2022-12-27T06:08:37.052Z,82.29
2022-12-27T06:09:37.078Z,82.49
2022-12-27T06:10:37.083Z,82.29
2022-12-27T06:11:36.838Z,82.29
2022-12-27T06:12:37.119Z,82.2
2022-12-27T06:13:37.179Z,82.87
2022-12-27T06:14:37.142Z,82.39
2022-12-27T06:15:36.907Z,82.2
2022-12-27T06:16:37.269Z,82.2
2022-12-27T06:17:37.186Z,82.39
2022-12-27T06:18:37.207Z,82.29
2022-12-27T06:19:37.218Z,82.39
2022-12-27T06:20:36.979Z,82.39
2022-12-27T06:21:37.245Z,82.68
2022-12-27T06:22:37.270Z,82.68
2022-12-27T06:23:37.283Z,82.39
2022-12-27T06:24:37.291Z,82.2
2022-12-27T06:25:37.307Z,82.39
2022-12-27T06:26:37.061Z,82.39
2022-12-27T06:27:37.079Z,82.49
2022-12-27T06:28:37.349Z,82.68
2022-12-27T06:29:37.408Z,82.39
2022-12-27T06:30:38.950Z,82.49
2022-12-27T06:31:37.443Z,82.49
2022-12-27T06:32:37.415Z,82.29
2022-12-27T06:33:37.419Z,82.2
2022-12-27T06:34:37.448Z,82.39
2022-12-27T06:35:37.461Z,82.29
2022-12-27T06:36:37.211Z,82.39
2022-12-27T06:37:37.535Z,82.49
2022-12-27T06:38:37.523Z,82.58
2022-12-27T06:39:37.262Z,82.39
2022-12-27T06:40:37.554Z,82.77
2022-12-27T06:41:37.284Z,82.39
2022-12-27T06:42:37.548Z,82.39
2022-12-27T06:43:37.580Z,82.68
2022-12-27T06:44:37.612Z,82.39
2022-12-27T06:45:37.752Z,82.68
2022-12-27T06:46:37.362Z,82.68
2022-12-27T06:47:37.641Z,82.49
2022-12-27T06:48:37.707Z,82.68
2022-12-27T06:49:37.653Z,82.49
2022-12-27T06:50:37.685Z,83.06
2022-12-27T06:51:37.440Z,82.58
2022-12-27T06:52:37.718Z,82.49
2022-12-27T06:53:37.717Z,82.58
2022-12-27T06:54:37.769Z,82.58
2022-12-27T06:55:37.741Z,82.49
2022-12-27T06:56:37.773Z,82.58
2022-12-27T06:57:37.783Z,82.58
2022-12-27T06:58:37.800Z,82.68
2022-12-27T06:59:37.809Z,82.58
2022-12-27T07:00:37.822Z,82.29
2022-12-27T07:01:38.208Z,82.87
2022-12-27T07:02:38.208Z,83.34
2022-12-27T07:03:37.866Z,83.15
2022-12-27T07:04:37.913Z,83.25
2022-12-27T07:05:37.917Z,83.15
2022-12-27T07:06:37.857Z,82.87
2022-12-27T07:07:37.960Z,82.49
2022-12-27T07:08:37.988Z,82.96
2022-12-27T07:09:38.019Z,82.49
2022-12-27T07:10:38.023Z,82.29
2022-12-27T07:11:38.089Z,82.87
2022-12-27T07:12:39.484Z,83.06
2022-12-27T07:13:38.034Z,82.68
2022-12-27T07:14:38.038Z,82.87
2022-12-27T07:15:38.048Z,82.87
2022-12-27T07:16:38.293Z,83.06
2022-12-27T07:17:38.145Z,82.39
2022-12-27T07:18:38.092Z,82.87
2022-12-27T07:19:38.110Z,82.39
2022-12-27T07:20:37.858Z,82.96
2022-12-27T07:21:38.149Z,82.96
2022-12-27T07:22:38.196Z,82.49
2022-12-27T07:23:37.933Z,82.68
2022-12-27T07:24:38.177Z,82.39
2022-12-27T07:25:38.198Z,83.06
2022-12-27T07:26:38.207Z,83.06
2022-12-27T07:27:37.968Z,83.15
2022-12-27T07:28:38.272Z,82.87
2022-12-27T07:29:45.798Z,83.15
2022-12-27T07:30:38.267Z,83.25
2022-12-27T07:31:38.142Z,82.96
2022-12-27T07:32:38.307Z,82.87
2022-12-27T07:33:38.365Z,82.96
2022-12-27T07:34:38.330Z,82.87
2022-12-27T07:35:45.277Z,82.87
2022-12-27T07:36:38.093Z,83.06
2022-12-27T07:37:38.122Z,82.87
2022-12-27T07:38:38.396Z,82.87
2022-12-27T07:39:38.402Z,83.06
2022-12-27T07:40:38.419Z,83.15
2022-12-27T07:41:38.443Z,82.96
2022-12-27T07:42:38.453Z,82.77
2022-12-27T07:43:38.463Z,83.06
2022-12-27T07:44:38.236Z,82.77
2022-12-27T07:45:38.630Z,82.68
2022-12-27T07:46:38.526Z,82.58
2022-12-27T07:47:38.518Z,82.87
2022-12-27T07:48:38.563Z,82.77
2022-12-27T07:49:38.674Z,82.77
2022-12-27T07:50:38.566Z,82.77
2022-12-27T07:51:38.581Z,82.87
2022-12-27T07:52:38.615Z,82.87
2022-12-27T07:53:38.641Z,82.87
2022-12-27T07:54:38.619Z,82.77
2022-12-27T07:55:38.390Z,82.77
2022-12-27T07:56:38.656Z,82.77
2022-12-27T07:57:38.680Z,82.77
2022-12-27T07:58:38.686Z,82.87
2022-12-27T07:59:38.705Z,82.87
2022-12-27T08:00:38.719Z,82.77
2022-12-27T08:01:38.941Z,82.87
2022-12-27T08:02:38.824Z,82.87
2022-12-27T08:03:38.877Z,82.77
2022-12-27T08:04:38.778Z,82.87
2022-12-27T08:05:38.858Z,82.77
2022-12-27T08:06:39.007Z,82.49
2022-12-27T08:07:38.817Z,82.49
2022-12-27T08:08:38.848Z,82.96
2022-12-27T08:09:38.863Z,82.87
2022-12-27T08:10:38.872Z,82.49
2022-12-27T08:11:38.619Z,82.49
2022-12-27T08:12:38.907Z,82.49
2022-12-27T08:13:38.908Z,82.49
2022-12-27T08:14:38.918Z,82.96
2022-12-27T08:15:38.948Z,82.87
2022-12-27T08:16:39.077Z,82.77
2022-12-27T08:17:38.973Z,82.96
2022-12-27T08:18:38.987Z,82.68
2022-12-27T08:19:39.012Z,82.68
2022-12-27T08:20:39.035Z,82.68
2022-12-27T08:21:39.083Z,82.68
2022-12-27T08:22:39.050Z,82.68
2022-12-27T08:23:38.815Z,82.58
2022-12-27T08:24:39.076Z,82.68
2022-12-27T08:25:42.039Z,82.68
2022-12-27T08:26:39.103Z,82.68
2022-12-27T08:27:39.141Z,82.68
2022-12-27T08:28:39.145Z,82.68
2022-12-27T08:29:39.141Z,82.58
2022-12-27T08:30:39.405Z,82.87
2022-12-27T08:31:38.921Z,82.68
2022-12-27T08:32:39.196Z,82.68
2022-12-27T08:33:38.948Z,82.49
2022-12-27T08:34:39.216Z,82.68
2022-12-27T08:35:56.778Z,82.77
2022-12-27T08:36:58.800Z,82.68
2022-12-27T08:37:57.426Z,82.87
2022-12-27T08:38:57.419Z,82.68
2022-12-27T08:40:03.459Z,82.87
2022-12-27T08:40:57.450Z,82.87
2022-12-27T08:41:57.459Z,82.77
2022-12-27T08:42:57.497Z,82.77
2022-12-27T08:43:57.503Z,83.06
2022-12-27T08:44:57.506Z,82.87
2022-12-27T08:45:57.348Z,82.58
2022-12-27T08:46:57.535Z,82.77
2022-12-27T08:47:57.648Z,82.87
2022-12-27T08:48:57.566Z,82.58
2022-12-27T08:49:57.570Z,83.25
2022-12-27T08:50:57.593Z,83.25
2022-12-27T08:51:57.603Z,83.34
2022-12-27T08:52:57.677Z,83.06
2022-12-27T08:53:57.634Z,83.25
2022-12-27T08:54:57.648Z,82.87
2022-12-27T08:55:57.666Z,82.77
2022-12-27T08:56:57.685Z,83.34
2022-12-27T08:57:57.695Z,83.15
2022-12-27T08:58:57.719Z,83.34
2022-12-27T08:59:57.730Z,83.25
2022-12-27T09:00:57.805Z,82.87
2022-12-27T09:01:57.966Z,83.25
2022-12-27T09:02:57.860Z,83.34
2022-12-27T09:03:57.535Z,83.06
2022-12-27T09:04:57.802Z,82.96
2022-12-27T09:05:57.815Z,83.34
2022-12-27T09:06:58.023Z,83.25
2022-12-27T09:07:57.586Z,83.15
2022-12-27T09:08:57.961Z,83.15
2022-12-27T09:09:57.885Z,83.25
2022-12-27T09:10:57.884Z,83.15
2022-12-27T09:12:02.858Z,83.72
2022-12-27T09:12:57.916Z,83.62
2022-12-27T09:13:57.968Z,83.25
2022-12-27T09:14:57.941Z,83.53
2022-12-27T09:15:58.020Z,83.62
2022-12-27T09:16:57.725Z,83.44
2022-12-27T09:17:58.000Z,83.62
2022-12-27T09:18:58.024Z,83.62
2022-12-27T09:19:58.026Z,83.44
2022-12-27T09:20:57.773Z,83.44
2022-12-27T09:21:57.808Z,83.53
2022-12-27T09:22:58.081Z,83.53
2022-12-27T09:23:57.821Z,83.53
2022-12-27T09:24:58.180Z,83.44
2022-12-27T09:25:58.117Z,83.25
2022-12-27T09:26:58.125Z,83.34
2022-12-27T09:27:57.916Z,83.34
2022-12-27T09:28:58.161Z,83.44
2022-12-27T09:29:58.165Z,83.44
2022-12-27T09:30:58.020Z,83.62
2022-12-27T09:31:57.956Z,83.34
2022-12-27T09:32:58.220Z,83.44
2022-12-27T09:33:58.242Z,83.44
2022-12-27T09:34:58.244Z,83.82
2022-12-27T09:35:57.995Z,83.72
2022-12-27T09:36:58.269Z,83.34
2022-12-27T09:37:58.410Z,83.72
2022-12-27T09:38:58.303Z,83.72
2022-12-27T09:39:58.067Z,83.62
2022-12-27T09:40:58.450Z,83.72
2022-12-27T09:42:50.083Z,83.62
2022-12-27T09:43:30.904Z,83.72
2022-12-27T09:44:30.900Z,83.62
2022-12-27T09:45:30.918Z,83.72
2022-12-27T09:46:30.794Z,83.72
2022-12-27T09:47:30.953Z,83.62
2022-12-27T09:48:35.365Z,83.34
2022-12-27T09:49:31.068Z,83.34
2022-12-27T09:50:30.990Z,83.62
2022-12-27T09:51:31.003Z,83.44
2022-12-27T09:52:31.048Z,83.44
2022-12-27T09:53:31.034Z,83.25
2022-12-27T09:54:31.053Z,83.44
2022-12-27T09:55:31.072Z,83.44
2022-12-27T09:57:36.765Z,83.53
2022-12-27T09:58:36.774Z,83.53
2022-12-27T09:59:36.798Z,83.53
2022-12-27T10:00:44.251Z,83.53
2022-12-27T10:01:37.102Z,83.53
2022-12-27T10:02:37.189Z,83.53
2022-12-27T10:03:36.592Z,83.44
2022-12-27T10:05:20.149Z,83.62
2022-12-27T10:05:37.083Z,83.34
2022-12-27T10:06:36.910Z,83.53
2022-12-27T10:07:37.114Z,83.72
2022-12-27T10:08:36.923Z,83.06
2022-12-27T10:09:36.953Z,83.34
2022-12-27T10:10:36.957Z,83.44
2022-12-27T10:11:37.009Z,83.82
2022-12-27T10:12:37.008Z,83.82
2022-12-27T10:13:37.004Z,83.34
2022-12-27T10:14:37.023Z,83.53
2022-12-27T10:15:37.348Z,83.82
2022-12-27T10:16:36.803Z,83.82
2022-12-27T10:17:37.067Z,83.91
2022-12-27T10:18:37.224Z,83.82
2022-12-27T10:19:36.848Z,83.82
2022-12-27T10:20:37.107Z,83.72
2022-12-27T10:21:37.137Z,83.82
2022-12-27T10:22:36.881Z,83.82
2022-12-27T10:23:37.162Z,83.82
2022-12-27T10:24:36.914Z,83.72
2022-12-27T10:25:37.244Z,83.91
2022-12-27T10:26:37.195Z,83.82
2022-12-27T10:27:37.234Z,83.72
2022-12-27T10:28:37.249Z,83.72
2022-12-27T10:29:37.242Z,83.53
2022-12-27T10:30:37.250Z,83.53
2022-12-27T10:31:37.412Z,83.82
2022-12-27T10:32:37.296Z,83.91
2022-12-27T10:33:37.297Z,83.53
2022-12-27T10:34:37.327Z,83.62
2022-12-27T10:35:37.329Z,83.53
2022-12-27T10:36:37.343Z,83.82
2022-12-27T10:37:37.103Z,83.72
2022-12-27T10:38:37.382Z,83.82
2022-12-27T10:39:37.392Z,83.82
2022-12-27T10:40:37.414Z,83.72
2022-12-27T10:41:37.426Z,83.72
2022-12-27T10:42:37.430Z,83.34
2022-12-27T10:43:37.484Z,83.72
2022-12-27T10:44:37.493Z,83.91
2022-12-27T10:45:37.478Z,83.91
2022-12-27T10:46:37.333Z,83.82
2022-12-27T10:47:37.501Z,83.82
2022-12-27T10:49:21.924Z,83.72
2022-12-27T10:49:37.541Z,83.44
2022-12-27T10:50:37.562Z,83.72
2022-12-27T10:51:37.582Z,83.82
2022-12-27T10:52:37.583Z,83.91
2022-12-27T10:53:37.356Z,83.82
2022-12-27T10:54:37.614Z,83.91
2022-12-27T10:55:37.632Z,83.72
2022-12-27T10:56:37.649Z,83.91
2022-12-27T10:57:37.669Z,83.72
2022-12-27T10:58:37.695Z,83.82
2022-12-27T10:59:37.798Z,84.29
2022-12-27T11:00:37.837Z,83.82
2022-12-27T11:01:38.024Z,83.53
2022-12-27T11:02:37.750Z,83.82
2022-12-27T11:03:37.749Z,83.82
2022-12-27T11:04:37.761Z,83.62
2022-12-27T11:05:37.768Z,83.82
2022-12-27T11:06:37.788Z,84.39
2022-12-27T11:07:38.046Z,84.58
2022-12-27T11:08:37.556Z,84.48
2022-12-27T11:09:37.829Z,84.48
2022-12-27T11:10:37.843Z,84.48
2022-12-27T11:11:37.878Z,84.29
2022-12-27T11:12:37.878Z,84.48
2022-12-27T11:13:37.629Z,84.58
2022-12-27T11:14:37.908Z,84.58
2022-12-27T11:15:37.970Z,84.29
2022-12-27T11:16:38.084Z,84.58
2022-12-27T11:17:37.986Z,84.29
2022-12-27T11:18:37.976Z,84.2
2022-12-27T11:19:37.990Z,84.29
2022-12-27T11:20:37.999Z,84.58
2022-12-27T11:21:38.012Z,84.48
2022-12-27T11:22:38.028Z,84.48
2022-12-27T11:23:38.041Z,84.29
2022-12-27T11:24:38.063Z,84.1
2022-12-27T11:25:38.067Z,84.29
2022-12-27T11:26:38.081Z,84.29
2022-12-27T11:27:38.096Z,84.1
2022-12-27T11:28:38.110Z,84.1
2022-12-27T11:29:37.867Z,84.2
2022-12-27T11:30:38.144Z,84.1
2022-12-27T11:31:38.297Z,84.29
2022-12-27T11:32:38.204Z,84.2
2022-12-27T11:33:38.188Z,84.48
2022-12-27T11:34:38.210Z,84.2
2022-12-27T11:35:38.212Z,84.48
2022-12-27T11:36:38.248Z,84.48
2022-12-27T11:37:38.259Z,84.48
2022-12-27T11:38:38.006Z,84.29
2022-12-27T11:39:38.284Z,84.2
2022-12-27T11:40:38.370Z,84.48
2022-12-27T11:41:38.334Z,84.2
2022-12-27T11:42:38.422Z,84.29
2022-12-27T11:43:38.331Z,84.29
2022-12-27T11:44:38.194Z,84.29
2022-12-27T11:45:38.365Z,84.39
2022-12-27T11:46:38.434Z,84.39
2022-12-27T11:47:38.449Z,84.29
2022-12-27T11:48:38.449Z,84.29
2022-12-27T11:49:38.422Z,84.58
2022-12-27T11:50:38.439Z,84.58
2022-12-27T11:51:38.464Z,84.29
2022-12-27T11:52:38.467Z,84.58
2022-12-27T11:53:38.523Z,84.58
2022-12-27T11:54:38.530Z,84.39
2022-12-27T11:55:38.555Z,84.58
2022-12-27T11:56:38.550Z,84.29
2022-12-27T11:57:38.551Z,84.39
2022-12-27T11:58:38.569Z,84.29
2022-12-27T11:59:38.761Z,84.2
2022-12-27T12:00:38.356Z,84.29
2022-12-27T12:01:38.721Z,84.39
2022-12-27T12:02:38.787Z,84.29
2022-12-27T12:03:38.710Z,84.29
2022-12-27T12:04:38.772Z,84.58
2022-12-27T12:05:38.667Z,84.2
2022-12-27T12:06:38.461Z,84.29
2022-12-27T12:07:39.156Z,84.29
2022-12-27T12:08:38.715Z,84.1
2022-12-27T12:09:38.761Z,84.48
2022-12-27T12:10:38.738Z,84.29
2022-12-27T12:11:38.754Z,84.48
2022-12-27T12:12:38.769Z,84.1
2022-12-27T12:13:38.784Z,84.1
2022-12-27T12:14:38.793Z,84.29
2022-12-27T12:15:38.813Z,84.1
2022-12-27T12:16:39.002Z,84.67
2022-12-27T12:17:39.100Z,84.86
2022-12-27T12:18:38.869Z,84.67
2022-12-27T12:19:38.898Z,84.86
2022-12-27T12:20:38.913Z,84.48
2022-12-27T12:21:38.906Z,84.67
2022-12-27T12:22:38.919Z,84.86
2022-12-27T12:23:38.933Z,84.29
2022-12-27T12:24:38.965Z,84.77
2022-12-27T12:25:38.965Z,84.67
2022-12-27T12:26:38.990Z,84.77
2022-12-27T12:27:38.740Z,84.48
2022-12-27T12:29:00.999Z,84.67
2022-12-27T12:29:39.019Z,84.48
2022-12-27T12:30:39.042Z,84.67
2022-12-27T12:31:39.125Z,84.67
2022-12-27T12:32:38.804Z,84.58
2022-12-27T12:33:39.086Z,84.39
2022-12-27T12:34:39.098Z,84.67
2022-12-27T12:35:39.144Z,84.67
2022-12-27T12:36:39.250Z,84.67
2022-12-27T12:37:38.873Z,84.67
2022-12-27T12:38:39.165Z,84.67
2022-12-27T12:39:39.164Z,84.67
2022-12-27T12:40:39.195Z,84.48
2022-12-27T12:41:38.932Z,84.95
2022-12-27T12:42:39.210Z,84.67
2022-12-27T12:43:39.250Z,84.58
2022-12-27T12:44:44.217Z,85.05
2022-12-27T12:45:39.062Z,84.95
2022-12-27T12:46:39.033Z,85.05
2022-12-27T12:47:39.301Z,84.86
2022-12-27T12:48:39.307Z,84.86
2022-12-27T12:49:39.343Z,84.95
2022-12-27T12:50:39.347Z,84.86
2022-12-27T12:51:39.367Z,84.86
2022-12-27T12:52:39.393Z,84.86
2022-12-27T12:53:39.369Z,84.86
2022-12-27T12:54:39.392Z,84.86
2022-12-27T12:55:41.122Z,84.95
2022-12-27T12:56:39.420Z,84.86
2022-12-27T12:57:39.181Z,84.67